createdAt,value
2022-09-30T00:01:36.930Z,4.83
2022-09-30T00:04:05.452Z,3.50
2022-09-30T00:06:35.223Z,71.30
2022-09-30T00:09:04.279Z,5.30
2022-09-30T00:11:35.272Z,3.40
2022-09-30T00:14:03.793Z,7.53
2022-09-30T00:16:37.790Z,6.77
2022-09-30T00:19:06.547Z,4.67
2022-09-30T00:21:35.043Z,13.60
2022-09-30T00:24:03.668Z,4.50
2022-09-30T00:26:33.803Z,3.87
2022-09-30T00:29:02.952Z,3.90
2022-09-30T00:31:33.364Z,6.10
2022-09-30T00:34:08.002Z,3.50
2022-09-30T00:36:38.404Z,4.73
2022-09-30T00:39:08.165Z,41.53
2022-09-30T00:41:38.443Z,4.73
2022-09-30T00:44:39.800Z,5.73
2022-09-30T00:47:34.437Z,4.03
2022-09-30T00:50:06.037Z,4.33
2022-09-30T00:52:35.002Z,3.77
2022-09-30T00:55:08.290Z,10.43
2022-09-30T00:57:38.078Z,8.33
2022-09-30T01:00:07.244Z,17.47
2022-09-30T01:02:35.284Z,6.20
2022-09-30T01:05:03.354Z,4.60
2022-09-30T01:07:31.513Z,4.73
2022-09-30T01:09:59.518Z,4.63
2022-09-30T01:12:27.970Z,7.43
2022-09-30T01:14:59.959Z,4.30
2022-09-30T01:17:37.964Z,4.20
2022-09-30T01:20:31.071Z,5.23
2022-09-30T01:23:16.863Z,7.27
2022-09-30T01:26:13.655Z,4.60
2022-09-30T01:29:18.991Z,10.23
2022-09-30T01:31:58.115Z,6.40
2022-09-30T01:34:39.018Z,16.13
2022-09-30T01:37:14.669Z,4.00
2022-09-30T01:39:52.291Z,4.37
2022-09-30T01:42:26.137Z,4.80
2022-09-30T01:45:03.576Z,7.93
2022-09-30T01:47:37.944Z,4.37
2022-09-30T01:50:10.626Z,4.30
2022-09-30T01:52:43.664Z,4.30
2022-09-30T01:55:18.771Z,28.27
2022-09-30T01:57:51.973Z,4.10
2022-09-30T02:00:21.177Z,5.00
2022-09-30T02:02:55.171Z,4.53
2022-09-30T02:05:28.169Z,4.87
2022-09-30T02:08:00.938Z,4.13
2022-09-30T02:10:34.501Z,4.47
2022-09-30T02:13:10.803Z,4.90
2022-09-30T02:15:42.772Z,31.23
2022-09-30T02:18:19.845Z,4.90
2022-09-30T02:20:51.050Z,4.30
2022-09-30T02:23:25.823Z,4.43
2022-09-30T02:26:07.027Z,4.90
2022-09-30T02:28:38.392Z,5.33
2022-09-30T02:31:11.142Z,4.87
2022-09-30T02:33:44.566Z,7.20
2022-09-30T02:36:20.468Z,5.93
2022-09-30T02:38:51.930Z,5.23
2022-09-30T02:41:26.444Z,5.03
2022-09-30T02:43:56.131Z,4.90
2022-09-30T02:46:34.736Z,6.57
2022-09-30T02:49:09.351Z,5.97
2022-09-30T02:51:43.745Z,4.43
2022-09-30T02:54:21.095Z,5.63
2022-09-30T02:56:55.599Z,7.13
2022-09-30T02:59:24.651Z,6.37
2022-09-30T03:01:52.730Z,4.67
2022-09-30T03:04:25.583Z,6.07
2022-09-30T03:06:54.010Z,5.17
2022-09-30T03:09:26.278Z,6.70
2022-09-30T03:11:59.379Z,5.40
2022-09-30T03:14:47.365Z,4.53
2022-09-30T03:17:34.931Z,4.00
2022-09-30T03:20:21.980Z,4.87
2022-09-30T03:23:07.566Z,4.60
2022-09-30T03:25:47.858Z,4.53
2022-09-30T03:28:25.988Z,5.97
2022-09-30T03:31:02.861Z,6.03
2022-09-30T03:33:39.880Z,4.90
2022-09-30T03:36:13.547Z,6.83
2022-09-30T03:38:49.564Z,4.57
2022-09-30T03:41:25.631Z,4.80
2022-09-30T03:43:59.583Z,5.07
2022-09-30T03:46:32.387Z,5.60
2022-09-30T03:49:04.206Z,4.93
2022-09-30T03:51:36.001Z,4.37
2022-09-30T03:54:10.189Z,4.40
2022-09-30T03:56:42.488Z,4.60
2022-09-30T03:59:17.960Z,4.63
2022-09-30T04:01:46.001Z,7.40
2022-09-30T04:04:14.060Z,4.93
2022-09-30T04:06:43.530Z,5.50
2022-09-30T04:09:11.638Z,4.70
2022-09-30T04:11:39.865Z,4.30
2022-09-30T04:14:08.194Z,5.03
2022-09-30T04:16:36.315Z,36.83
2022-09-30T04:19:04.563Z,6.00
2022-09-30T04:21:32.546Z,5.97
2022-09-30T04:24:02.330Z,4.80
2022-09-30T04:26:30.321Z,5.57
2022-09-30T04:28:58.827Z,4.83
2022-09-30T04:31:27.128Z,17.50
2022-09-30T04:33:57.025Z,4.63
2022-09-30T04:36:25.071Z,17.47
2022-09-30T04:38:53.586Z,4.80
2022-09-30T04:41:23.133Z,5.80
2022-09-30T04:43:51.294Z,6.40
2022-09-30T04:46:22.635Z,6.13
2022-09-30T04:48:51.187Z,7.70
2022-09-30T04:51:20.794Z,4.67
2022-09-30T04:53:49.857Z,5.30
2022-09-30T04:56:18.378Z,4.80
2022-09-30T04:58:47.893Z,4.77
2022-09-30T05:01:17.534Z,6.07
2022-09-30T05:03:47.199Z,4.93
2022-09-30T05:06:15.610Z,4.30
2022-09-30T05:08:46.014Z,5.07
2022-09-30T05:11:17.449Z,5.10
2022-09-30T05:13:47.417Z,5.70
2022-09-30T05:16:16.980Z,4.87
2022-09-30T05:18:47.016Z,7.47
2022-09-30T05:21:16.854Z,6.67
2022-09-30T05:23:46.190Z,5.40
2022-09-30T05:26:14.616Z,5.10
2022-09-30T05:28:43.458Z,6.03
2022-09-30T05:31:13.768Z,5.30
2022-09-30T05:33:41.951Z,6.77
2022-09-30T05:36:13.007Z,6.67
2022-09-30T05:38:41.117Z,6.70
2022-09-30T05:41:11.371Z,5.80
2022-09-30T05:43:40.697Z,8.30
2022-09-30T05:46:09.386Z,7.33
2022-09-30T05:48:38.753Z,5.47
2022-09-30T05:51:07.581Z,5.27
2022-09-30T05:53:39.232Z,4.53
2022-09-30T05:56:07.739Z,5.30
2022-09-30T05:58:36.499Z,5.03
2022-09-30T06:01:13.141Z,5.50
2022-09-30T06:03:43.737Z,5.30
2022-09-30T06:06:12.936Z,4.60
2022-09-30T06:08:41.671Z,6.00
2022-09-30T06:11:12.784Z,7.17
2022-09-30T06:13:41.551Z,6.60
2022-09-30T06:16:10.787Z,6.23
2022-09-30T06:18:41.300Z,7.90
2022-09-30T06:21:12.631Z,9.17
2022-09-30T06:23:41.635Z,8.27
2022-09-30T06:26:11.695Z,6.50
2022-09-30T06:28:39.835Z,9.93
2022-09-30T06:31:08.171Z,10.27
2022-09-30T06:33:36.740Z,8.93
2022-09-30T06:36:06.158Z,10.83
2022-09-30T06:38:37.511Z,13.07
2022-09-30T06:41:06.092Z,26.50
2022-09-30T06:43:41.527Z,38.33
2022-09-30T06:46:29.578Z,42.37
2022-09-30T06:49:10.679Z,51.73
2022-09-30T06:51:42.094Z,159.40
2022-09-30T06:54:11.853Z,132.57
2022-09-30T06:56:39.871Z,102.07
2022-09-30T06:59:08.121Z,86.30
2022-09-30T07:01:36.188Z,135.33
2022-09-30T07:04:09.600Z,123.33
2022-09-30T07:06:38.971Z,210.70
2022-09-30T07:09:07.819Z,258.17
2022-09-30T07:11:38.342Z,273.47
2022-09-30T07:14:07.155Z,203.43
2022-09-30T07:16:35.593Z,242.23
2022-09-30T07:19:05.669Z,242.80
2022-09-30T07:21:33.863Z,259.57
2022-09-30T07:24:02.330Z,302.87
2022-09-30T07:26:31.127Z,188.70
2022-09-30T07:29:01.145Z,276.93
2022-09-30T07:31:34.522Z,232.63
2022-09-30T07:34:07.413Z,291.53
2022-09-30T07:36:38.049Z,283.37
2022-09-30T07:39:09.390Z,281.47
2022-09-30T07:41:40.148Z,324.83
2022-09-30T07:44:14.726Z,235.90
2022-09-30T07:46:44.957Z,166.93
2022-09-30T07:49:20.811Z,89.17
2022-09-30T07:51:48.961Z,47.87
2022-09-30T07:54:19.734Z,103.13
2022-09-30T07:59:39.999Z,31.47
2022-09-30T08:02:09.988Z,27.13
2022-09-30T08:04:42.930Z,14.40
2022-09-30T08:07:13.017Z,14.43
2022-09-30T08:09:41.120Z,31.27
2022-09-30T08:12:09.666Z,37.33
2022-09-30T08:14:39.135Z,6.50
2022-09-30T08:17:07.254Z,17.50
2022-09-30T08:19:35.409Z,32.37
2022-09-30T08:24:36.508Z,21.27
2022-09-30T08:27:05.252Z,13.20
2022-09-30T08:29:53.719Z,38.47
2022-09-30T08:32:22.862Z,27.47
2022-09-30T08:34:50.974Z,22.50
2022-09-30T08:37:19.103Z,39.00
2022-09-30T08:39:48.532Z,25.03
2022-09-30T08:42:49.676Z,20.90
2022-09-30T08:45:26.677Z,17.97
2022-09-30T08:48:04.232Z,42.73
2022-09-30T08:50:40.837Z,56.73
2022-09-30T08:53:16.799Z,62.80
2022-09-30T08:55:46.810Z,33.80
2022-09-30T08:58:23.944Z,9.43
2022-09-30T09:00:56.790Z,47.83
2022-09-30T09:03:31.005Z,60.70
2022-09-30T09:06:09.869Z,25.00
2022-09-30T09:08:53.706Z,9.50
2022-09-30T09:11:32.772Z,58.83
2022-09-30T09:14:05.202Z,29.17
2022-09-30T09:16:39.055Z,52.53
2022-09-30T09:19:11.261Z,20.37
2022-09-30T09:21:51.585Z,39.47
2022-09-30T09:24:23.251Z,87.77
2022-09-30T09:26:52.727Z,106.43
2022-09-30T09:29:34.271Z,43.43
2022-09-30T09:32:03.717Z,38.60
2022-09-30T09:34:36.988Z,45.90
2022-09-30T09:37:16.098Z,64.43
2022-09-30T09:40:03.869Z,138.47
2022-09-30T09:42:47.569Z,69.67
2022-09-30T09:45:24.455Z,62.43
2022-09-30T09:47:53.188Z,63.63
2022-09-30T09:50:27.100Z,123.77
2022-09-30T09:53:24.745Z,48.23
2022-09-30T09:56:00.111Z,17.50
2022-09-30T09:58:28.461Z,19.37
2022-09-30T10:01:32.380Z,64.80
2022-09-30T10:04:16.721Z,29.13
2022-09-30T10:06:52.264Z,38.80
2022-09-30T10:09:31.971Z,77.70
2022-09-30T10:12:28.996Z,71.93
2022-09-30T10:15:19.257Z,100.03
2022-09-30T10:17:54.023Z,162.17
2022-09-30T10:20:29.213Z,94.07
2022-09-30T10:23:20.618Z,88.77
2022-09-30T10:26:04.844Z,71.97
2022-09-30T10:28:36.011Z,170.77
2022-09-30T10:31:08.022Z,113.03
2022-09-30T10:33:45.104Z,56.00
2022-09-30T10:36:17.290Z,76.83
2022-09-30T10:39:01.155Z,46.23
2022-09-30T10:41:34.566Z,68.23
2022-09-30T10:44:05.037Z,106.60
2022-09-30T10:46:36.734Z,84.20
2022-09-30T10:49:11.858Z,156.00
2022-09-30T10:51:40.419Z,176.80
2022-09-30T10:54:50.929Z,74.03
2022-09-30T10:57:23.525Z,58.20
2022-09-30T10:59:55.872Z,126.30
2022-09-30T11:02:30.647Z,121.33
2022-09-30T11:05:13.455Z,101.03
2022-09-30T11:07:46.612Z,144.47
2022-09-30T11:10:29.603Z,104.47
2022-09-30T11:13:06.655Z,309.10
2022-09-30T11:15:42.247Z,48.77
2022-09-30T11:18:20.641Z,32.60
2022-09-30T11:20:55.331Z,146.57
2022-09-30T11:23:30.825Z,163.77
2022-09-30T11:26:08.316Z,142.67
2022-09-30T11:28:53.299Z,136.77
2022-09-30T11:31:31.132Z,77.87
2022-09-30T11:34:24.807Z,135.20
2022-09-30T11:37:02.761Z,100.37
2022-09-30T11:39:54.939Z,241.43
2022-09-30T11:42:34.391Z,92.80
2022-09-30T11:45:15.247Z,155.77
2022-09-30T11:47:57.210Z,107.27
2022-09-30T11:50:34.714Z,93.70
2022-09-30T11:53:14.654Z,98.17
2022-09-30T11:56:00.889Z,131.07
2022-09-30T11:58:42.162Z,99.50
2022-09-30T12:01:21.827Z,202.50
2022-09-30T12:03:57.843Z,108.57
2022-09-30T12:06:32.116Z,142.20
2022-09-30T12:09:05.906Z,136.67
2022-09-30T12:11:40.021Z,96.77
2022-09-30T12:14:17.474Z,113.37
2022-09-30T12:16:47.620Z,85.07
2022-09-30T12:19:21.860Z,52.80
2022-09-30T12:21:57.919Z,69.97
2022-09-30T12:24:32.269Z,105.20
2022-09-30T12:27:02.040Z,141.67
2022-09-30T12:29:53.704Z,110.97
2022-09-30T12:32:48.817Z,364.90
2022-09-30T12:35:37.905Z,123.93
2022-09-30T12:38:21.276Z,77.27
2022-09-30T12:41:00.799Z,88.60
2022-09-30T12:44:06.973Z,88.63
2022-09-30T12:46:55.632Z,139.97
2022-09-30T12:49:26.474Z,165.77
2022-09-30T12:51:58.026Z,133.37
2022-09-30T12:54:29.097Z,141.97
2022-09-30T12:57:00.614Z,144.67
2022-09-30T12:59:31.917Z,131.87
2022-09-30T13:02:03.795Z,169.37
2022-09-30T13:04:35.568Z,106.87
2022-09-30T13:07:17.091Z,141.47
2022-09-30T13:10:24.670Z,209.37
2022-09-30T13:13:17.662Z,146.87
2022-09-30T13:15:46.377Z,173.73
2022-09-30T13:18:51.657Z,100.30
2022-09-30T13:21:32.245Z,110.20
2022-09-30T13:24:01.082Z,175.70
2022-09-30T13:26:48.803Z,117.47
2022-09-30T13:29:50.433Z,90.40
2022-09-30T13:32:37.382Z,270.30
2022-09-30T13:35:31.720Z,246.53
2022-09-30T13:38:20.185Z,159.40
2022-09-30T13:41:01.929Z,75.00
2022-09-30T13:43:35.299Z,57.47
2022-09-30T13:46:11.913Z,168.90
2022-09-30T13:48:44.603Z,144.87
2022-09-30T13:51:16.624Z,88.63
2022-09-30T13:53:48.998Z,136.77
2022-09-30T13:56:21.665Z,229.93
2022-09-30T13:59:31.559Z,123.40
2022-09-30T14:02:40.211Z,139.27
2022-09-30T14:05:35.237Z,183.10
2022-09-30T14:08:28.152Z,134.73
2022-09-30T14:11:16.151Z,560.80
2022-09-30T14:13:57.943Z,276.13
2022-09-30T14:16:47.393Z,108.60
2022-09-30T14:19:44.784Z,179.27
2022-09-30T14:22:15.380Z,217.03
2022-09-30T14:24:43.575Z,291.70
2022-09-30T14:27:31.743Z,275.03
2022-09-30T14:30:06.660Z,179.00
2022-09-30T14:32:39.530Z,112.00
2022-09-30T14:35:09.932Z,75.03
2022-09-30T14:37:42.884Z,125.53
2022-09-30T14:40:14.067Z,133.90
2022-09-30T14:42:45.428Z,108.33
2022-09-30T14:45:21.689Z,152.83
2022-09-30T14:47:52.528Z,230.73
2022-09-30T14:50:26.040Z,106.17
2022-09-30T14:52:57.046Z,167.83
2022-09-30T14:55:30.397Z,170.93
2022-09-30T14:58:22.658Z,204.40
2022-09-30T15:00:58.784Z,141.37
2022-09-30T15:03:28.269Z,176.53
2022-09-30T15:05:56.938Z,175.13
2022-09-30T15:08:25.464Z,185.90
2022-09-30T15:10:56.094Z,160.10
2022-09-30T15:13:28.361Z,261.10
2022-09-30T15:15:56.584Z,145.30
2022-09-30T15:18:31.576Z,149.47
2022-09-30T15:21:02.585Z,61.83
2022-09-30T15:23:33.187Z,102.30
2022-09-30T15:26:01.627Z,148.27
2022-09-30T15:28:31.204Z,414.53
2022-09-30T15:31:00.535Z,322.97
2022-09-30T15:33:31.974Z,102.57
2022-09-30T15:36:05.696Z,95.53
2022-09-30T15:38:35.525Z,216.10
2022-09-30T15:41:08.463Z,152.90
2022-09-30T15:43:42.231Z,185.67
2022-09-30T15:46:31.988Z,267.87
2022-09-30T15:49:02.253Z,157.87
2022-09-30T15:51:39.296Z,136.87
2022-09-30T15:54:32.331Z,183.93
2022-09-30T15:57:03.274Z,240.90
2022-09-30T16:00:02.128Z,95.50
2022-09-30T16:02:31.560Z,109.03
2022-09-30T16:05:02.069Z,104.57
2022-09-30T16:07:32.300Z,121.67
2022-09-30T16:10:00.703Z,44.87
2022-09-30T16:12:33.672Z,131.57
2022-09-30T16:15:14.437Z,174.57
2022-09-30T16:17:48.222Z,59.13
2022-09-30T16:20:24.959Z,81.57
2022-09-30T16:22:55.325Z,128.10
2022-09-30T16:25:26.554Z,109.57
2022-09-30T16:28:00.102Z,56.43
2022-09-30T16:30:32.162Z,72.33
2022-09-30T16:33:04.879Z,85.73
2022-09-30T16:35:33.612Z,26.50
2022-09-30T16:38:03.338Z,73.77
2022-09-30T16:40:32.854Z,45.73
2022-09-30T16:43:04.285Z,70.70
2022-09-30T16:45:35.350Z,35.07
2022-09-30T16:48:10.672Z,43.43
2022-09-30T16:50:41.539Z,33.23
2022-09-30T16:53:10.648Z,12.83
2022-09-30T16:55:38.866Z,79.03
2022-09-30T16:58:07.180Z,26.63
2022-09-30T17:00:36.614Z,11.47
2022-09-30T17:03:04.747Z,6.67
2022-09-30T17:05:32.760Z,27.80
2022-09-30T17:08:01.522Z,32.37
2022-09-30T17:10:31.610Z,11.47
2022-09-30T17:13:00.995Z,12.93
2022-09-30T17:15:30.369Z,15.27
2022-09-30T17:18:00.124Z,11.10
2022-09-30T17:20:28.482Z,20.97
2022-09-30T17:22:56.551Z,13.53
2022-09-30T17:25:24.588Z,15.63
2022-09-30T17:27:52.694Z,10.20
2022-09-30T17:30:21.404Z,15.97
2022-09-30T17:32:49.641Z,34.77
2022-09-30T17:35:20.097Z,19.13
2022-09-30T17:37:48.107Z,21.57
2022-09-30T17:40:30.283Z,35.37
2022-09-30T17:43:11.405Z,9.80
2022-09-30T17:45:41.762Z,10.80
2022-09-30T17:48:10.703Z,11.97
2022-09-30T17:50:42.385Z,9.40
2022-09-30T17:53:12.971Z,8.87
2022-09-30T17:55:41.478Z,51.43
2022-09-30T17:58:11.315Z,25.97
2022-09-30T18:00:39.564Z,10.03
2022-09-30T18:03:08.837Z,12.27
2022-09-30T18:05:39.134Z,15.67
2022-09-30T18:08:07.137Z,13.33
2022-09-30T18:10:37.895Z,13.80
2022-09-30T18:13:06.620Z,11.60
2022-09-30T18:15:35.166Z,11.50
2022-09-30T18:18:03.256Z,12.40
2022-09-30T18:20:31.373Z,8.60
2022-09-30T18:23:00.878Z,13.63
2022-09-30T18:25:30.128Z,9.27
2022-09-30T18:27:59.435Z,7.63
2022-09-30T18:30:27.842Z,8.40
2022-09-30T18:32:57.091Z,9.40
2022-09-30T18:35:25.958Z,8.80
2022-09-30T18:37:54.627Z,7.93
2022-09-30T18:40:26.253Z,12.80
2022-09-30T18:42:58.446Z,8.00
2022-09-30T18:45:27.093Z,13.40
2022-09-30T18:47:56.788Z,7.10
2022-09-30T18:50:25.576Z,8.00
2022-09-30T18:52:54.396Z,8.93
2022-09-30T18:55:23.996Z,9.37
2022-09-30T18:57:55.297Z,10.30
2022-09-30T19:00:23.307Z,12.67
2022-09-30T19:02:53.028Z,8.53
2022-09-30T19:05:22.054Z,20.60
2022-09-30T19:07:50.246Z,17.87
2022-09-30T19:10:18.389Z,8.40
2022-09-30T19:12:47.799Z,8.63
2022-09-30T19:15:16.452Z,8.80
2022-09-30T19:17:44.761Z,8.30
2022-09-30T19:20:15.270Z,8.13
2022-09-30T19:22:43.559Z,13.87
2022-09-30T19:25:12.728Z,14.00
2022-09-30T19:27:41.983Z,16.77
2022-09-30T19:30:13.760Z,8.37
2022-09-30T19:32:42.023Z,8.60
2022-09-30T19:35:12.013Z,9.70
2022-09-30T19:37:57.135Z,9.27
2022-09-30T19:43:05.014Z,8.67
2022-09-30T19:45:34.511Z,8.27
2022-09-30T19:48:03.284Z,9.73
2022-09-30T19:50:31.275Z,13.20
2022-09-30T19:52:59.903Z,9.60
2022-09-30T19:55:27.941Z,8.90
2022-09-30T19:57:56.045Z,11.37
2022-09-30T20:00:24.157Z,10.00
2022-09-30T20:02:53.682Z,13.77
2022-09-30T20:05:23.633Z,20.30
2022-09-30T20:07:52.908Z,12.33
2022-09-30T20:10:20.958Z,12.80
2022-09-30T20:12:49.133Z,16.20
2022-09-30T20:15:34.969Z,8.30
2022-09-30T20:18:05.207Z,9.70
2022-09-30T20:20:37.234Z,11.60
2022-09-30T20:23:05.591Z,21.53
2022-09-30T20:25:35.557Z,30.67
2022-09-30T20:28:05.103Z,16.20
2022-09-30T20:30:33.938Z,17.27
2022-09-30T20:33:02.489Z,14.33
2022-09-30T20:35:31.903Z,39.77
2022-09-30T20:38:00.001Z,10.40
2022-09-30T20:40:28.070Z,13.43
2022-09-30T20:43:03.466Z,8.20
2022-09-30T20:45:31.598Z,8.50
2022-09-30T20:47:59.694Z,6.53
2022-09-30T20:50:36.611Z,16.90
2022-09-30T20:53:08.486Z,7.00
2022-09-30T20:55:38.215Z,8.03
2022-09-30T20:58:07.421Z,6.80
2022-09-30T21:00:37.759Z,9.73
2022-09-30T21:03:06.127Z,8.47
2022-09-30T21:05:34.146Z,5.70
2022-09-30T21:08:03.313Z,10.03
2022-09-30T21:10:32.831Z,6.73
2022-09-30T21:13:01.384Z,8.53
2022-09-30T21:15:31.728Z,7.13
2022-09-30T21:17:59.835Z,6.27
2022-09-30T21:20:27.809Z,7.37
2022-09-30T21:22:55.865Z,7.60
2022-09-30T21:25:23.939Z,8.00
2022-09-30T21:27:53.677Z,9.70
2022-09-30T21:30:21.799Z,15.73
2022-09-30T21:32:49.910Z,13.93
2022-09-30T21:35:18.081Z,12.67
2022-09-30T21:37:49.041Z,9.07
2022-09-30T21:40:17.143Z,11.93
2022-09-30T21:42:45.303Z,8.03
2022-09-30T21:45:14.671Z,11.53
2022-09-30T21:47:42.707Z,10.90
2022-09-30T21:50:11.280Z,9.93
2022-09-30T21:52:39.487Z,11.33
2022-09-30T21:55:08.221Z,12.77
2022-09-30T21:57:36.434Z,9.87
2022-09-30T22:00:05.744Z,9.03
2022-09-30T22:02:36.697Z,12.23
2022-09-30T22:05:06.260Z,9.73
2022-09-30T22:07:34.943Z,11.20
2022-09-30T22:10:03.284Z,10.63
2022-09-30T22:12:32.323Z,10.87
2022-09-30T22:15:00.305Z,10.33
2022-09-30T22:17:28.277Z,19.13
2022-09-30T22:19:57.849Z,11.20
2022-09-30T22:22:26.547Z,16.43
2022-09-30T22:24:54.584Z,10.97
2022-09-30T22:27:23.096Z,13.07
2022-09-30T22:29:51.439Z,12.53
2022-09-30T22:32:19.502Z,10.40
2022-09-30T22:35:05.102Z,10.33
2022-09-30T22:37:51.706Z,11.87
2022-09-30T22:40:19.765Z,10.00
2022-09-30T22:42:48.937Z,13.27
2022-09-30T22:45:17.053Z,11.37
2022-09-30T22:47:45.058Z,13.63
2022-09-30T22:50:13.233Z,10.67
2022-09-30T22:52:42.619Z,10.70
2022-09-30T22:55:10.871Z,15.57
2022-09-30T22:57:38.882Z,11.77
2022-09-30T23:00:07.972Z,10.67
2022-09-30T23:02:36.013Z,12.37
2022-09-30T23:05:04.576Z,12.93
2022-09-30T23:07:32.556Z,13.43
2022-09-30T23:10:01.953Z,15.03
2022-09-30T23:12:30.365Z,13.17
2022-09-30T23:14:58.511Z,14.20
2022-09-30T23:17:26.885Z,9.87
2022-09-30T23:19:55.202Z,13.17
2022-09-30T23:22:23.524Z,10.43
2022-09-30T23:24:51.542Z,12.20
2022-09-30T23:27:20.961Z,11.77
2022-09-30T23:29:49.318Z,11.87
2022-09-30T23:32:17.356Z,13.80
2022-09-30T23:34:45.916Z,13.43
2022-09-30T23:37:13.963Z,22.40
2022-09-30T23:39:41.968Z,12.57
2022-09-30T23:42:09.969Z,13.63
2022-09-30T23:44:39.328Z,15.10
2022-09-30T23:47:19.488Z,12.13
2022-09-30T23:49:47.493Z,12.70
2022-09-30T23:52:16.113Z,11.37
2022-09-30T23:54:44.548Z,11.57
2022-09-30T23:57:12.808Z,11.60
2022-09-30T23:59:42.182Z,13.47
